sensor_id;sensor_type;location;lat;lon;timestamp;P1;durP1;ratioP1;P2;durP2;ratioP2
81367;SDS011;70823;50.056;14.398;2023-09-30T00:02:19;5.37;;;4.00;;
81367;SDS011;70823;50.056;14.398;2023-09-30T00:04:45;7.40;;;4.38;;
81367;SDS011;70823;50.056;14.398;2023-09-30T00:07:10;6.03;;;3.75;;
81367;SDS011;70823;50.056;14.398;2023-09-30T00:09:35;5.63;;;3.80;;
81367;SDS011;70823;50.056;14.398;2023-09-30T00:12:01;6.60;;;3.50;;
81367;SDS011;70823;50.056;14.398;2023-09-30T00:14:26;4.85;;;3.53;;
81367;SDS011;70823;50.056;14.398;2023-09-30T00:16:52;5.30;;;4.03;;
81367;SDS011;70823;50.056;14.398;2023-09-30T00:19:17;5.07;;;3.60;;
81367;SDS011;70823;50.056;14.398;2023-09-30T00:21:42;5.93;;;3.83;;
81367;SDS011;70823;50.056;14.398;2023-09-30T00:24:08;5.47;;;3.97;;
81367;SDS011;70823;50.056;14.398;2023-09-30T00:26:34;5.45;;;3.92;;
81367;SDS011;70823;50.056;14.398;2023-09-30T00:28:59;5.88;;;4.30;;
81367;SDS011;70823;50.056;14.398;2023-09-30T00:31:24;5.83;;;4.00;;
81367;SDS011;70823;50.056;14.398;2023-09-30T00:33:50;6.70;;;4.10;;
81367;SDS011;70823;50.056;14.398;2023-09-30T00:36:15;6.87;;;3.77;;
81367;SDS011;70823;50.056;14.398;2023-09-30T00:38:41;6.00;;;4.45;;
81367;SDS011;70823;50.056;14.398;2023-09-30T00:41:06;7.27;;;4.43;;
81367;SDS011;70823;50.056;14.398;2023-09-30T00:43:32;7.45;;;4.45;;
81367;SDS011;70823;50.056;14.398;2023-09-30T00:46:43;7.45;;;4.70;;
81367;SDS011;70823;50.056;14.398;2023-09-30T00:48:50;8.52;;;4.68;;
81367;SDS011;70823;50.056;14.398;2023-09-30T00:51:15;6.53;;;4.32;;
81367;SDS011;70823;50.056;14.398;2023-09-30T00:53:41;8.73;;;4.78;;
81367;SDS011;70823;50.056;14.398;2023-09-30T00:56:06;9.43;;;5.20;;
81367;SDS011;70823;50.056;14.398;2023-09-30T00:58:32;8.85;;;4.85;;
81367;SDS011;70823;50.056;14.398;2023-09-30T01:00:59;8.40;;;4.50;;
81367;SDS011;70823;50.056;14.398;2023-09-30T01:03:24;8.70;;;5.45;;
81367;SDS011;70823;50.056;14.398;2023-09-30T01:05:50;9.00;;;5.28;;
81367;SDS011;70823;50.056;14.398;2023-09-30T01:08:18;11.00;;;5.47;;
81367;SDS011;70823;50.056;14.398;2023-09-30T01:10:45;11.80;;;5.85;;
81367;SDS011;70823;50.056;14.398;2023-09-30T01:13:10;12.07;;;5.90;;
81367;SDS011;70823;50.056;14.398;2023-09-30T01:15:35;11.23;;;6.65;;
81367;SDS011;70823;50.056;14.398;2023-09-30T01:18:02;11.35;;;5.63;;
81367;SDS011;70823;50.056;14.398;2023-09-30T01:20:28;12.80;;;5.65;;
81367;SDS011;70823;50.056;14.398;2023-09-30T01:22:53;11.63;;;5.82;;
81367;SDS011;70823;50.056;14.398;2023-09-30T01:25:20;11.02;;;5.75;;
81367;SDS011;70823;50.056;14.398;2023-09-30T01:27:46;11.80;;;5.68;;
81367;SDS011;70823;50.056;14.398;2023-09-30T01:30:12;12.80;;;6.30;;
81367;SDS011;70823;50.056;14.398;2023-09-30T01:32:38;12.73;;;6.68;;
81367;SDS011;70823;50.056;14.398;2023-09-30T01:35:04;13.27;;;5.88;;
81367;SDS011;70823;50.056;14.398;2023-09-30T01:37:30;13.93;;;7.28;;
81367;SDS011;70823;50.056;14.398;2023-09-30T01:39:55;13.23;;;7.10;;
81367;SDS011;70823;50.056;14.398;2023-09-30T01:42:20;12.43;;;6.30;;
81367;SDS011;70823;50.056;14.398;2023-09-30T01:44:46;13.30;;;6.32;;
81367;SDS011;70823;50.056;14.398;2023-09-30T01:47:11;12.93;;;6.32;;
81367;SDS011;70823;50.056;14.398;2023-09-30T01:49:37;14.73;;;6.77;;
81367;SDS011;70823;50.056;14.398;2023-09-30T01:52:02;14.68;;;7.10;;
81367;SDS011;70823;50.056;14.398;2023-09-30T01:54:28;18.30;;;7.25;;
81367;SDS011;70823;50.056;14.398;2023-09-30T01:56:53;14.30;;;7.00;;
81367;SDS011;70823;50.056;14.398;2023-09-30T01:59:18;16.80;;;7.77;;
81367;SDS011;70823;50.056;14.398;2023-09-30T02:01:44;16.30;;;7.47;;
81367;SDS011;70823;50.056;14.398;2023-09-30T02:04:11;15.95;;;7.25;;
81367;SDS011;70823;50.056;14.398;2023-09-30T02:06:37;16.88;;;8.00;;
81367;SDS011;70823;50.056;14.398;2023-09-30T02:09:03;15.53;;;6.63;;
81367;SDS011;70823;50.056;14.398;2023-09-30T02:11:29;15.15;;;6.80;;
81367;SDS011;70823;50.056;14.398;2023-09-30T02:13:55;17.47;;;8.33;;
81367;SDS011;70823;50.056;14.398;2023-09-30T02:16:20;16.00;;;7.53;;
81367;SDS011;70823;50.056;14.398;2023-09-30T02:18:45;16.63;;;7.93;;
81367;SDS011;70823;50.056;14.398;2023-09-30T02:21:11;16.15;;;7.35;;
81367;SDS011;70823;50.056;14.398;2023-09-30T02:23:36;16.63;;;7.77;;
81367;SDS011;70823;50.056;14.398;2023-09-30T02:26:02;14.43;;;7.77;;
81367;SDS011;70823;50.056;14.398;2023-09-30T02:28:27;17.90;;;8.02;;
81367;SDS011;70823;50.056;14.398;2023-09-30T02:30:53;17.38;;;7.70;;
81367;SDS011;70823;50.056;14.398;2023-09-30T02:33:18;17.60;;;8.47;;
81367;SDS011;70823;50.056;14.398;2023-09-30T02:35:44;19.40;;;8.35;;
81367;SDS011;70823;50.056;14.398;2023-09-30T02:38:10;18.25;;;7.53;;
81367;SDS011;70823;50.056;14.398;2023-09-30T02:40:36;15.93;;;7.03;;
81367;SDS011;70823;50.056;14.398;2023-09-30T02:43:01;18.83;;;8.43;;
81367;SDS011;70823;50.056;14.398;2023-09-30T02:45:27;22.13;;;9.50;;
81367;SDS011;70823;50.056;14.398;2023-09-30T02:47:52;20.17;;;8.40;;
81367;SDS011;70823;50.056;14.398;2023-09-30T02:50:17;17.60;;;7.60;;
81367;SDS011;70823;50.056;14.398;2023-09-30T02:52:43;18.15;;;7.93;;
81367;SDS011;70823;50.056;14.398;2023-09-30T02:55:11;18.00;;;8.33;;
81367;SDS011;70823;50.056;14.398;2023-09-30T02:57:37;16.30;;;8.10;;
81367;SDS011;70823;50.056;14.398;2023-09-30T03:00:08;18.40;;;8.25;;
81367;SDS011;70823;50.056;14.398;2023-09-30T03:02:55;19.02;;;7.97;;
81367;SDS011;70823;50.056;14.398;2023-09-30T03:05:21;16.52;;;7.30;;
81367;SDS011;70823;50.056;14.398;2023-09-30T03:07:46;18.23;;;8.13;;
81367;SDS011;70823;50.056;14.398;2023-09-30T03:10:12;19.33;;;8.15;;
81367;SDS011;70823;50.056;14.398;2023-09-30T03:12:39;20.27;;;8.55;;
81367;SDS011;70823;50.056;14.398;2023-09-30T03:15:04;17.55;;;8.10;;
81367;SDS011;70823;50.056;14.398;2023-09-30T03:17:30;18.83;;;8.38;;
81367;SDS011;70823;50.056;14.398;2023-09-30T03:19:57;16.90;;;8.18;;
81367;SDS011;70823;50.056;14.398;2023-09-30T03:22:26;18.00;;;8.43;;
81367;SDS011;70823;50.056;14.398;2023-09-30T03:24:52;19.40;;;7.93;;
81367;SDS011;70823;50.056;14.398;2023-09-30T03:27:18;19.60;;;8.55;;
81367;SDS011;70823;50.056;14.398;2023-09-30T03:29:44;18.70;;;8.07;;
81367;SDS011;70823;50.056;14.398;2023-09-30T03:32:09;17.25;;;7.57;;
81367;SDS011;70823;50.056;14.398;2023-09-30T03:34:35;19.35;;;7.60;;
81367;SDS011;70823;50.056;14.398;2023-09-30T03:37:09;18.08;;;7.97;;
81367;SDS011;70823;50.056;14.398;2023-09-30T03:39:35;18.70;;;8.23;;
81367;SDS011;70823;50.056;14.398;2023-09-30T03:42:00;17.40;;;8.47;;
81367;SDS011;70823;50.056;14.398;2023-09-30T03:44:26;18.83;;;7.95;;
81367;SDS011;70823;50.056;14.398;2023-09-30T03:46:51;18.20;;;8.55;;
81367;SDS011;70823;50.056;14.398;2023-09-30T03:49:17;15.18;;;7.10;;
81367;SDS011;70823;50.056;14.398;2023-09-30T03:51:44;17.83;;;6.97;;
81367;SDS011;70823;50.056;14.398;2023-09-30T03:54:10;19.38;;;8.18;;
81367;SDS011;70823;50.056;14.398;2023-09-30T03:56:36;19.60;;;8.15;;
81367;SDS011;70823;50.056;14.398;2023-09-30T03:59:03;17.58;;;8.30;;
81367;SDS011;70823;50.056;14.398;2023-09-30T04:01:28;18.63;;;8.27;;
81367;SDS011;70823;50.056;14.398;2023-09-30T04:03:54;18.20;;;7.25;;
81367;SDS011;70823;50.056;14.398;2023-09-30T04:06:20;16.25;;;7.43;;
81367;SDS011;70823;50.056;14.398;2023-09-30T04:08:45;17.47;;;7.77;;
81367;SDS011;70823;50.056;14.398;2023-09-30T04:11:11;17.25;;;7.53;;
81367;SDS011;70823;50.056;14.398;2023-09-30T04:13:42;16.38;;;8.02;;
81367;SDS011;70823;50.056;14.398;2023-09-30T04:16:08;15.80;;;7.57;;
81367;SDS011;70823;50.056;14.398;2023-09-30T04:18:33;16.73;;;7.33;;
81367;SDS011;70823;50.056;14.398;2023-09-30T04:20:58;16.83;;;7.73;;
81367;SDS011;70823;50.056;14.398;2023-09-30T04:23:24;18.87;;;7.73;;
81367;SDS011;70823;50.056;14.398;2023-09-30T04:25:50;17.83;;;7.55;;
81367;SDS011;70823;50.056;14.398;2023-09-30T04:28:15;15.85;;;7.03;;
81367;SDS011;70823;50.056;14.398;2023-09-30T04:30:45;17.92;;;7.47;;
81367;SDS011;70823;50.056;14.398;2023-09-30T04:33:10;17.02;;;7.70;;
81367;SDS011;70823;50.056;14.398;2023-09-30T04:35:37;16.10;;;7.47;;
81367;SDS011;70823;50.056;14.398;2023-09-30T04:38:02;17.60;;;7.67;;
81367;SDS011;70823;50.056;14.398;2023-09-30T04:40:29;18.23;;;7.75;;
81367;SDS011;70823;50.056;14.398;2023-09-30T04:42:54;17.42;;;8.68;;
81367;SDS011;70823;50.056;14.398;2023-09-30T04:45:23;18.70;;;8.13;;
81367;SDS011;70823;50.056;14.398;2023-09-30T04:47:49;17.65;;;7.70;;
81367;SDS011;70823;50.056;14.398;2023-09-30T04:50:15;14.98;;;7.00;;
81367;SDS011;70823;50.056;14.398;2023-09-30T04:52:41;16.23;;;7.07;;
81367;SDS011;70823;50.056;14.398;2023-09-30T04:55:06;15.77;;;7.28;;
81367;SDS011;70823;50.056;14.398;2023-09-30T04:57:32;17.23;;;6.88;;
81367;SDS011;70823;50.056;14.398;2023-09-30T04:59:58;16.03;;;6.90;;
81367;SDS011;70823;50.056;14.398;2023-09-30T05:02:26;13.37;;;6.47;;
81367;SDS011;70823;50.056;14.398;2023-09-30T05:04:52;15.55;;;6.53;;
81367;SDS011;70823;50.056;14.398;2023-09-30T05:07:19;15.93;;;7.25;;
81367;SDS011;70823;50.056;14.398;2023-09-30T05:09:47;15.73;;;6.93;;
81367;SDS011;70823;50.056;14.398;2023-09-30T05:12:13;13.48;;;6.22;;
81367;SDS011;70823;50.056;14.398;2023-09-30T05:14:38;13.33;;;5.47;;
81367;SDS011;70823;50.056;14.398;2023-09-30T05:17:04;13.93;;;6.20;;
81367;SDS011;70823;50.056;14.398;2023-09-30T05:19:30;12.98;;;5.82;;
81367;SDS011;70823;50.056;14.398;2023-09-30T05:21:57;11.10;;;5.00;;
81367;SDS011;70823;50.056;14.398;2023-09-30T05:24:22;10.60;;;4.82;;
81367;SDS011;70823;50.056;14.398;2023-09-30T05:26:47;12.20;;;5.53;;
81367;SDS011;70823;50.056;14.398;2023-09-30T05:29:13;10.95;;;4.88;;
81367;SDS011;70823;50.056;14.398;2023-09-30T05:31:38;8.13;;;3.90;;
81367;SDS011;70823;50.056;14.398;2023-09-30T05:34:04;8.32;;;3.88;;
81367;SDS011;70823;50.056;14.398;2023-09-30T05:36:29;8.93;;;3.85;;
81367;SDS011;70823;50.056;14.398;2023-09-30T05:38:55;8.10;;;3.67;;
81367;SDS011;70823;50.056;14.398;2023-09-30T05:41:23;7.82;;;3.60;;
81367;SDS011;70823;50.056;14.398;2023-09-30T05:43:49;7.38;;;3.10;;
81367;SDS011;70823;50.056;14.398;2023-09-30T05:46:15;7.07;;;3.10;;
81367;SDS011;70823;50.056;14.398;2023-09-30T05:48:40;8.73;;;3.15;;
81367;SDS011;70823;50.056;14.398;2023-09-30T05:51:06;8.27;;;2.88;;
81367;SDS011;70823;50.056;14.398;2023-09-30T05:53:31;5.78;;;2.83;;
81367;SDS011;70823;50.056;14.398;2023-09-30T05:55:57;5.60;;;2.40;;
81367;SDS011;70823;50.056;14.398;2023-09-30T05:58:24;5.38;;;2.53;;
81367;SDS011;70823;50.056;14.398;2023-09-30T06:00:50;5.20;;;2.20;;
81367;SDS011;70823;50.056;14.398;2023-09-30T06:03:16;7.00;;;2.92;;
81367;SDS011;70823;50.056;14.398;2023-09-30T06:05:41;4.37;;;2.07;;
81367;SDS011;70823;50.056;14.398;2023-09-30T06:08:08;5.22;;;2.22;;
81367;SDS011;70823;50.056;14.398;2023-09-30T06:10:39;3.85;;;1.85;;
81367;SDS011;70823;50.056;14.398;2023-09-30T06:13:07;4.22;;;2.00;;
81367;SDS011;70823;50.056;14.398;2023-09-30T06:15:33;3.55;;;1.83;;
81367;SDS011;70823;50.056;14.398;2023-09-30T06:17:59;4.40;;;1.98;;
81367;SDS011;70823;50.056;14.398;2023-09-30T06:20:25;4.03;;;2.10;;
81367;SDS011;70823;50.056;14.398;2023-09-30T06:22:51;4.28;;;2.15;;
81367;SDS011;70823;50.056;14.398;2023-09-30T06:25:19;3.80;;;1.90;;
81367;SDS011;70823;50.056;14.398;2023-09-30T06:27:47;4.82;;;1.92;;
81367;SDS011;70823;50.056;14.398;2023-09-30T06:30:13;4.85;;;1.90;;
81367;SDS011;70823;50.056;14.398;2023-09-30T06:32:41;5.03;;;1.90;;
81367;SDS011;70823;50.056;14.398;2023-09-30T06:35:06;3.72;;;1.70;;
81367;SDS011;70823;50.056;14.398;2023-09-30T06:37:35;4.07;;;2.15;;
81367;SDS011;70823;50.056;14.398;2023-09-30T06:40:00;5.33;;;2.10;;
81367;SDS011;70823;50.056;14.398;2023-09-30T06:42:29;4.07;;;1.85;;
81367;SDS011;70823;50.056;14.398;2023-09-30T06:44:54;4.25;;;1.90;;
81367;SDS011;70823;50.056;14.398;2023-09-30T06:47:19;3.07;;;1.60;;
81367;SDS011;70823;50.056;14.398;2023-09-30T06:49:45;3.97;;;2.08;;
81367;SDS011;70823;50.056;14.398;2023-09-30T06:52:11;3.95;;;1.90;;
81367;SDS011;70823;50.056;14.398;2023-09-30T06:54:36;3.47;;;2.10;;
81367;SDS011;70823;50.056;14.398;2023-09-30T06:57:02;4.17;;;1.90;;
81367;SDS011;70823;50.056;14.398;2023-09-30T06:59:27;5.28;;;2.08;;
81367;SDS011;70823;50.056;14.398;2023-09-30T07:01:52;3.93;;;1.90;;
81367;SDS011;70823;50.056;14.398;2023-09-30T07:04:18;4.23;;;1.80;;
81367;SDS011;70823;50.056;14.398;2023-09-30T07:06:43;3.70;;;1.67;;
81367;SDS011;70823;50.056;14.398;2023-09-30T07:09:08;4.63;;;1.80;;
81367;SDS011;70823;50.056;14.398;2023-09-30T07:11:35;5.00;;;1.90;;
81367;SDS011;70823;50.056;14.398;2023-09-30T07:14:00;4.93;;;2.00;;
81367;SDS011;70823;50.056;14.398;2023-09-30T07:16:26;3.55;;;1.90;;
81367;SDS011;70823;50.056;14.398;2023-09-30T07:18:51;3.63;;;1.70;;
81367;SDS011;70823;50.056;14.398;2023-09-30T07:21:16;3.93;;;1.90;;
81367;SDS011;70823;50.056;14.398;2023-09-30T07:23:42;3.90;;;1.73;;
81367;SDS011;70823;50.056;14.398;2023-09-30T07:26:07;3.65;;;1.80;;
81367;SDS011;70823;50.056;14.398;2023-09-30T07:28:33;3.33;;;1.77;;
81367;SDS011;70823;50.056;14.398;2023-09-30T07:30:58;3.60;;;1.90;;
81367;SDS011;70823;50.056;14.398;2023-09-30T07:33:24;4.32;;;2.10;;
81367;SDS011;70823;50.056;14.398;2023-09-30T07:35:49;15.35;;;11.98;;
81367;SDS011;70823;50.056;14.398;2023-09-30T07:38:14;13.80;;;9.37;;
81367;SDS011;70823;50.056;14.398;2023-09-30T07:40:40;13.57;;;10.32;;
81367;SDS011;70823;50.056;14.398;2023-09-30T07:43:05;14.43;;;8.98;;
81367;SDS011;70823;50.056;14.398;2023-09-30T07:45:30;12.77;;;7.93;;
81367;SDS011;70823;50.056;14.398;2023-09-30T07:47:56;11.45;;;7.30;;
81367;SDS011;70823;50.056;14.398;2023-09-30T07:50:23;14.23;;;7.65;;
81367;SDS011;70823;50.056;14.398;2023-09-30T07:52:48;10.07;;;6.20;;
81367;SDS011;70823;50.056;14.398;2023-09-30T07:55:13;11.43;;;6.70;;
81367;SDS011;70823;50.056;14.398;2023-09-30T07:57:40;10.60;;;6.05;;
81367;SDS011;70823;50.056;14.398;2023-09-30T08:00:07;9.27;;;4.75;;
81367;SDS011;70823;50.056;14.398;2023-09-30T08:02:34;8.43;;;5.35;;
81367;SDS011;70823;50.056;14.398;2023-09-30T08:04:59;7.07;;;3.97;;
81367;SDS011;70823;50.056;14.398;2023-09-30T08:07:25;8.85;;;4.30;;
81367;SDS011;70823;50.056;14.398;2023-09-30T08:09:51;8.00;;;3.28;;
81367;SDS011;70823;50.056;14.398;2023-09-30T08:12:16;6.63;;;4.17;;
81367;SDS011;70823;50.056;14.398;2023-09-30T08:14:41;8.20;;;3.67;;
81367;SDS011;70823;50.056;14.398;2023-09-30T08:17:09;5.18;;;2.78;;
81367;SDS011;70823;50.056;14.398;2023-09-30T08:19:35;4.88;;;2.67;;
81367;SDS011;70823;50.056;14.398;2023-09-30T08:22:00;4.95;;;2.92;;
81367;SDS011;70823;50.056;14.398;2023-09-30T08:24:26;5.97;;;3.00;;
81367;SDS011;70823;50.056;14.398;2023-09-30T08:26:53;5.22;;;2.65;;
81367;SDS011;70823;50.056;14.398;2023-09-30T08:29:20;6.15;;;2.78;;
81367;SDS011;70823;50.056;14.398;2023-09-30T08:31:46;6.97;;;2.53;;
81367;SDS011;70823;50.056;14.398;2023-09-30T08:34:11;6.85;;;2.83;;
81367;SDS011;70823;50.056;14.398;2023-09-30T08:36:39;5.78;;;2.65;;
81367;SDS011;70823;50.056;14.398;2023-09-30T08:39:04;5.43;;;2.47;;
81367;SDS011;70823;50.056;14.398;2023-09-30T08:41:31;7.30;;;2.77;;
81367;SDS011;70823;50.056;14.398;2023-09-30T08:43:59;4.55;;;1.95;;
81367;SDS011;70823;50.056;14.398;2023-09-30T08:46:25;5.55;;;2.50;;
81367;SDS011;70823;50.056;14.398;2023-09-30T08:48:52;7.18;;;2.38;;
81367;SDS011;70823;50.056;14.398;2023-09-30T08:51:18;6.03;;;2.38;;
81367;SDS011;70823;50.056;14.398;2023-09-30T08:53:43;5.20;;;2.30;;
81367;SDS011;70823;50.056;14.398;2023-09-30T08:56:09;5.07;;;2.20;;
81367;SDS011;70823;50.056;14.398;2023-09-30T08:58:35;4.95;;;2.25;;
81367;SDS011;70823;50.056;14.398;2023-09-30T09:01:01;5.50;;;2.45;;
81367;SDS011;70823;50.056;14.398;2023-09-30T09:03:27;5.23;;;2.87;;
81367;SDS011;70823;50.056;14.398;2023-09-30T09:05:57;5.40;;;2.13;;
81367;SDS011;70823;50.056;14.398;2023-09-30T09:08:25;6.28;;;2.35;;
81367;SDS011;70823;50.056;14.398;2023-09-30T09:10:54;5.07;;;2.10;;
81367;SDS011;70823;50.056;14.398;2023-09-30T09:13:21;6.85;;;2.60;;
81367;SDS011;70823;50.056;14.398;2023-09-30T09:15:46;5.20;;;2.20;;
81367;SDS011;70823;50.056;14.398;2023-09-30T09:18:12;4.60;;;2.20;;
81367;SDS011;70823;50.056;14.398;2023-09-30T09:20:39;3.75;;;1.98;;
81367;SDS011;70823;50.056;14.398;2023-09-30T09:23:04;6.22;;;2.33;;
81367;SDS011;70823;50.056;14.398;2023-09-30T09:25:33;6.15;;;2.17;;
81367;SDS011;70823;50.056;14.398;2023-09-30T09:28:03;4.80;;;2.22;;
81367;SDS011;70823;50.056;14.398;2023-09-30T09:30:28;5.90;;;2.17;;
81367;SDS011;70823;50.056;14.398;2023-09-30T09:33:01;5.90;;;2.07;;
81367;SDS011;70823;50.056;14.398;2023-09-30T09:35:28;4.68;;;2.42;;
81367;SDS011;70823;50.056;14.398;2023-09-30T09:37:56;4.75;;;2.38;;
81367;SDS011;70823;50.056;14.398;2023-09-30T09:40:23;12.15;;;2.67;;
81367;SDS011;70823;50.056;14.398;2023-09-30T09:42:50;6.22;;;2.60;;
81367;SDS011;70823;50.056;14.398;2023-09-30T09:45:18;6.65;;;2.05;;
81367;SDS011;70823;50.056;14.398;2023-09-30T09:47:45;6.15;;;2.35;;
81367;SDS011;70823;50.056;14.398;2023-09-30T09:50:11;6.15;;;2.25;;
81367;SDS011;70823;50.056;14.398;2023-09-30T09:52:38;6.28;;;2.55;;
81367;SDS011;70823;50.056;14.398;2023-09-30T09:55:04;7.25;;;2.25;;
81367;SDS011;70823;50.056;14.398;2023-09-30T09:57:31;5.88;;;2.30;;
81367;SDS011;70823;50.056;14.398;2023-09-30T09:59:57;7.25;;;2.10;;
81367;SDS011;70823;50.056;14.398;2023-09-30T10:02:23;6.10;;;2.45;;
81367;SDS011;70823;50.056;14.398;2023-09-30T10:04:49;8.88;;;2.95;;
81367;SDS011;70823;50.056;14.398;2023-09-30T10:07:36;7.25;;;2.65;;
81367;SDS011;70823;50.056;14.398;2023-09-30T10:10:05;6.70;;;3.00;;
81367;SDS011;70823;50.056;14.398;2023-09-30T10:12:36;5.72;;;2.85;;
81367;SDS011;70823;50.056;14.398;2023-09-30T10:15:27;6.43;;;2.78;;
81367;SDS011;70823;50.056;14.398;2023-09-30T10:17:59;6.03;;;2.60;;
81367;SDS011;70823;50.056;14.398;2023-09-30T10:20:28;7.93;;;2.47;;
81367;SDS011;70823;50.056;14.398;2023-09-30T10:25:52;5.60;;;2.58;;
81367;SDS011;70823;50.056;14.398;2023-09-30T10:28:39;5.78;;;2.25;;
81367;SDS011;70823;50.056;14.398;2023-09-30T10:31:22;5.10;;;2.40;;
81367;SDS011;70823;50.056;14.398;2023-09-30T10:38:54;7.10;;;2.33;;
81367;SDS011;70823;50.056;14.398;2023-09-30T10:42:05;4.72;;;2.40;;
81367;SDS011;70823;50.056;14.398;2023-09-30T10:46:51;6.43;;;2.63;;
81367;SDS011;70823;50.056;14.398;2023-09-30T10:49:17;5.38;;;2.50;;
81367;SDS011;70823;50.056;14.398;2023-09-30T10:51:42;5.80;;;2.13;;
81367;SDS011;70823;50.056;14.398;2023-09-30T10:54:08;4.32;;;2.30;;
81367;SDS011;70823;50.056;14.398;2023-09-30T10:56:34;5.82;;;2.70;;
81367;SDS011;70823;50.056;14.398;2023-09-30T10:58:59;6.33;;;2.53;;
81367;SDS011;70823;50.056;14.398;2023-09-30T11:01:31;5.30;;;2.47;;
81367;SDS011;70823;50.056;14.398;2023-09-30T11:03:58;6.10;;;2.63;;
81367;SDS011;70823;50.056;14.398;2023-09-30T11:06:27;5.80;;;2.78;;
81367;SDS011;70823;50.056;14.398;2023-09-30T11:08:53;4.28;;;2.10;;
81367;SDS011;70823;50.056;14.398;2023-09-30T11:11:19;5.78;;;2.58;;
81367;SDS011;70823;50.056;14.398;2023-09-30T11:13:44;4.55;;;2.45;;
81367;SDS011;70823;50.056;14.398;2023-09-30T11:16:10;4.78;;;2.33;;
81367;SDS011;70823;50.056;14.398;2023-09-30T11:18:35;4.63;;;2.47;;
81367;SDS011;70823;50.056;14.398;2023-09-30T11:21:10;4.95;;;2.10;;
81367;SDS011;70823;50.056;14.398;2023-09-30T11:23:36;3.78;;;1.70;;
81367;SDS011;70823;50.056;14.398;2023-09-30T11:26:02;5.45;;;1.90;;
81367;SDS011;70823;50.056;14.398;2023-09-30T11:28:35;7.70;;;2.78;;
81367;SDS011;70823;50.056;14.398;2023-09-30T11:31:01;12.80;;;5.18;;
81367;SDS011;70823;50.056;14.398;2023-09-30T11:33:28;11.23;;;3.30;;
81367;SDS011;70823;50.056;14.398;2023-09-30T11:38:29;13.93;;;3.40;;
81367;SDS011;70823;50.056;14.398;2023-09-30T11:43:30;9.57;;;3.20;;
81367;SDS011;70823;50.056;14.398;2023-09-30T11:48:33;5.95;;;2.25;;
81367;SDS011;70823;50.056;14.398;2023-09-30T11:51:00;7.75;;;2.40;;
81367;SDS011;70823;50.056;14.398;2023-09-30T11:53:28;4.53;;;2.10;;
81367;SDS011;70823;50.056;14.398;2023-09-30T11:55:57;5.03;;;2.03;;
81367;SDS011;70823;50.056;14.398;2023-09-30T12:00:53;5.25;;;2.38;;
81367;SDS011;70823;50.056;14.398;2023-09-30T12:03:18;8.90;;;2.10;;
81367;SDS011;70823;50.056;14.398;2023-09-30T12:05:45;4.15;;;1.73;;
81367;SDS011;70823;50.056;14.398;2023-09-30T12:08:10;6.03;;;2.03;;
81367;SDS011;70823;50.056;14.398;2023-09-30T12:10:36;7.70;;;2.22;;
81367;SDS011;70823;50.056;14.398;2023-09-30T12:13:01;5.10;;;2.20;;
81367;SDS011;70823;50.056;14.398;2023-09-30T12:15:27;6.13;;;2.20;;
81367;SDS011;70823;50.056;14.398;2023-09-30T12:17:52;4.67;;;1.80;;
81367;SDS011;70823;50.056;14.398;2023-09-30T12:20:17;5.57;;;2.10;;
81367;SDS011;70823;50.056;14.398;2023-09-30T12:22:43;7.35;;;2.67;;
81367;SDS011;70823;50.056;14.398;2023-09-30T12:25:08;8.05;;;2.20;;
81367;SDS011;70823;50.056;14.398;2023-09-30T12:27:34;4.45;;;1.60;;
81367;SDS011;70823;50.056;14.398;2023-09-30T12:29:59;13.30;;;2.67;;
81367;SDS011;70823;50.056;14.398;2023-09-30T12:32:24;9.18;;;2.25;;
81367;SDS011;70823;50.056;14.398;2023-09-30T12:34:51;7.57;;;2.13;;
81367;SDS011;70823;50.056;14.398;2023-09-30T12:37:17;5.50;;;2.28;;
81367;SDS011;70823;50.056;14.398;2023-09-30T12:39:43;5.63;;;2.20;;
81367;SDS011;70823;50.056;14.398;2023-09-30T12:42:10;10.18;;;2.30;;
81367;SDS011;70823;50.056;14.398;2023-09-30T12:44:37;4.55;;;2.13;;
81367;SDS011;70823;50.056;14.398;2023-09-30T12:47:02;4.85;;;1.98;;
81367;SDS011;70823;50.056;14.398;2023-09-30T12:49:30;5.65;;;2.17;;
81367;SDS011;70823;50.056;14.398;2023-09-30T12:51:55;4.53;;;2.00;;
81367;SDS011;70823;50.056;14.398;2023-09-30T12:54:22;3.63;;;1.80;;
81367;SDS011;70823;50.056;14.398;2023-09-30T12:56:48;4.70;;;1.92;;
81367;SDS011;70823;50.056;14.398;2023-09-30T12:59:15;7.32;;;2.42;;
81367;SDS011;70823;50.056;14.398;2023-09-30T13:01:41;4.50;;;2.00;;
81367;SDS011;70823;50.056;14.398;2023-09-30T13:04:06;5.10;;;1.87;;
81367;SDS011;70823;50.056;14.398;2023-09-30T13:06:33;6.53;;;2.22;;
81367;SDS011;70823;50.056;14.398;2023-09-30T13:09:00;32.88;;;4.63;;
81367;SDS011;70823;50.056;14.398;2023-09-30T13:11:25;7.40;;;2.50;;
81367;SDS011;70823;50.056;14.398;2023-09-30T13:13:51;19.45;;;3.65;;
81367;SDS011;70823;50.056;14.398;2023-09-30T13:16:17;16.25;;;3.15;;
81367;SDS011;70823;50.056;14.398;2023-09-30T13:18:42;12.68;;;2.70;;
81367;SDS011;70823;50.056;14.398;2023-09-30T13:21:07;10.67;;;3.10;;
81367;SDS011;70823;50.056;14.398;2023-09-30T13:23:33;19.52;;;3.72;;
81367;SDS011;70823;50.056;14.398;2023-09-30T13:25:59;10.27;;;2.60;;
81367;SDS011;70823;50.056;14.398;2023-09-30T13:28:24;13.03;;;2.87;;
81367;SDS011;70823;50.056;14.398;2023-09-30T13:30:49;12.67;;;2.87;;
81367;SDS011;70823;50.056;14.398;2023-09-30T13:33:14;11.85;;;2.72;;
81367;SDS011;70823;50.056;14.398;2023-09-30T13:35:40;11.53;;;2.63;;
81367;SDS011;70823;50.056;14.398;2023-09-30T13:38:05;16.63;;;2.73;;
81367;SDS011;70823;50.056;14.398;2023-09-30T13:40:30;8.97;;;2.93;;
81367;SDS011;70823;50.056;14.398;2023-09-30T13:42:56;12.33;;;3.27;;
81367;SDS011;70823;50.056;14.398;2023-09-30T13:45:23;7.63;;;2.42;;
81367;SDS011;70823;50.056;14.398;2023-09-30T13:47:49;17.23;;;3.70;;
81367;SDS011;70823;50.056;14.398;2023-09-30T13:50:14;9.47;;;2.40;;
81367;SDS011;70823;50.056;14.398;2023-09-30T13:52:41;9.82;;;2.25;;
81367;SDS011;70823;50.056;14.398;2023-09-30T13:55:06;10.57;;;2.33;;
81367;SDS011;70823;50.056;14.398;2023-09-30T13:57:33;7.32;;;2.42;;
81367;SDS011;70823;50.056;14.398;2023-09-30T13:59:58;6.50;;;2.30;;
81367;SDS011;70823;50.056;14.398;2023-09-30T14:02:23;6.20;;;2.10;;
81367;SDS011;70823;50.056;14.398;2023-09-30T14:04:49;5.87;;;2.70;;
81367;SDS011;70823;50.056;14.398;2023-09-30T14:07:14;6.30;;;2.17;;
81367;SDS011;70823;50.056;14.398;2023-09-30T14:09:43;7.28;;;2.42;;
81367;SDS011;70823;50.056;14.398;2023-09-30T14:12:08;5.30;;;2.13;;
81367;SDS011;70823;50.056;14.398;2023-09-30T14:14:33;5.32;;;2.05;;
81367;SDS011;70823;50.056;14.398;2023-09-30T14:16:59;3.60;;;2.00;;
81367;SDS011;70823;50.056;14.398;2023-09-30T14:19:25;4.13;;;2.08;;
81367;SDS011;70823;50.056;14.398;2023-09-30T14:21:50;3.93;;;1.83;;
81367;SDS011;70823;50.056;14.398;2023-09-30T14:24:15;4.37;;;2.00;;
81367;SDS011;70823;50.056;14.398;2023-09-30T14:26:41;4.60;;;2.20;;
81367;SDS011;70823;50.056;14.398;2023-09-30T14:29:06;6.30;;;2.25;;
81367;SDS011;70823;50.056;14.398;2023-09-30T14:31:31;5.33;;;2.70;;
81367;SDS011;70823;50.056;14.398;2023-09-30T14:33:57;8.83;;;2.40;;
81367;SDS011;70823;50.056;14.398;2023-09-30T14:36:22;5.68;;;2.78;;
81367;SDS011;70823;50.056;14.398;2023-09-30T14:38:47;5.00;;;2.20;;
81367;SDS011;70823;50.056;14.398;2023-09-30T14:41:14;4.57;;;2.00;;
81367;SDS011;70823;50.056;14.398;2023-09-30T14:43:39;4.75;;;2.20;;
81367;SDS011;70823;50.056;14.398;2023-09-30T14:46:05;4.28;;;2.10;;